Time;durP1;ratioP1;P1;durP2;ratioP2;P2;SDS_P1;SDS_P2;PMS_P1;PMS_P2;Temp;Humidity;BMP_temperature;BMP_pressure;BME280_temperature;BME280_humidity;BME280_pressure;Samples;Min_cycle;Max_cycle;Signal;HPM_P1;HPM_P2
2021/08/31 04:15:40;;;;;;;12.70;10.18;;;;;;;14.11;100.00;99138.34;5807473;23;19958;-72
2021/08/31 04:18:05;;;;;;;14.40;10.40;;;;;;;14.10;100.00;99134.88;4973242;28;20499;-72
2021/08/31 04:20:31;;;;;;;15.25;11.93;;;;;;;14.08;100.00;99144.50;4981309;28;20034;-72
2021/08/31 04:22:56;;;;;;;15.98;11.45;;;;;;;14.09;100.00;99154.03;4992387;28;20022;-73
2021/08/31 04:25:23;;;;;;;18.75;10.52;;;;;;;14.13;100.00;99144.38;4990641;28;20026;-73
2021/08/31 04:27:48;;;;;;;17.52;10.30;;;;;;;14.15;100.00;99151.25;4972883;28;20030;-71
2021/08/31 04:30:14;;;;;;;14.75;9.80;;;;;;;14.05;100.00;99149.78;5010496;23;20411;-73
2021/08/31 04:32:39;;;;;;;16.88;9.70;;;;;;;13.98;100.00;99163.88;4971358;28;20109;-73
2021/08/31 04:35:05;;;;;;;12.35;10.10;;;;;;;13.84;100.00;99155.56;4972537;28;20030;-73
2021/08/31 04:37:31;;;;;;;14.02;10.32;;;;;;;14.03;100.00;99162.00;4972706;28;20026;-73
2021/08/31 04:39:57;;;;;;;14.75;10.63;;;;;;;14.00;100.00;99161.22;4972601;28;20412;-73
2021/08/31 04:42:22;;;;;;;14.25;10.73;;;;;;;13.95;100.00;99158.75;4972481;28;20365;-73
2021/08/31 04:44:48;;;;;;;15.35;11.25;;;;;;;13.95;100.00;99163.94;4972526;28;20038;-73
2021/08/31 04:47:15;;;;;;;15.25;10.73;;;;;;;14.09;99.71;99167.06;4972525;28;20027;-73
2021/08/31 04:49:40;;;;;;;13.00;9.85;;;;;;;14.11;99.90;99165.25;4970911;28;20101;-73
2021/08/31 04:52:06;;;;;;;11.77;10.02;;;;;;;13.95;100.00;99171.75;4956465;29;20058;-73
2021/08/31 04:54:31;;;;;;;13.90;11.13;;;;;;;14.03;100.00;99175.03;4956834;28;20054;-73
2021/08/31 04:56:56;;;;;;;19.13;10.43;;;;;;;14.06;100.00;99172.34;4956839;28;20031;-73
2021/08/31 04:59:22;;;;;;;16.63;10.65;;;;;;;13.99;100.00;99176.00;4956699;28;20082;-73
2021/08/31 05:01:47;;;;;;;14.30;9.60;;;;;;;14.18;100.00;99175.53;4956664;28;20495;-73
2021/08/31 05:04:12;;;;;;;10.43;9.20;;;;;;;14.30;99.27;99168.22;4967332;28;20027;-72
2021/08/31 05:06:38;;;;;;;13.18;10.45;;;;;;;14.20;98.78;99168.53;4975980;28;20356;-71
2021/08/31 05:09:03;;;;;;;13.05;9.48;;;;;;;14.18;98.93;99170.31;4975794;28;20035;-71
2021/08/31 05:11:28;;;;;;;13.18;8.52;;;;;;;14.21;98.89;99175.44;4975870;28;20031;-71
2021/08/31 05:13:54;;;;;;;12.48;8.77;;;;;;;14.36;98.44;99169.84;4975671;28;20046;-71
2021/08/31 05:16:20;;;;;;;13.35;8.95;;;;;;;14.30;98.84;99167.38;4975612;28;20464;-71
2021/08/31 05:18:45;;;;;;;9.00;8.13;;;;;;;14.37;98.95;99171.53;4976060;28;20034;-71
2021/08/31 05:21:11;;;;;;;11.88;9.48;;;;;;;14.32;99.08;99173.41;4961889;28;20519;-71
2021/08/31 05:23:36;;;;;;;10.30;8.73;;;;;;;14.29;99.40;99178.69;4956357;29;20114;-71
2021/08/31 05:26:02;;;;;;;9.95;8.32;;;;;;;14.39;99.16;99185.38;4956100;29;20027;-71
2021/08/31 05:28:28;;;;;;;11.75;8.52;;;;;;;14.58;98.92;99183.16;4956093;29;20041;-71
2021/08/31 05:30:53;;;;;;;9.50;8.60;;;;;;;14.58;98.67;99189.22;4956128;29;20106;-72
2021/08/31 05:33:18;;;;;;;9.52;8.57;;;;;;;14.60;97.71;99190.06;4963844;28;20023;-72
2021/08/31 05:35:44;;;;;;;10.18;7.88;;;;;;;14.68;98.27;99196.81;4970739;28;20035;-72
2021/08/31 05:38:10;;;;;;;10.30;8.20;;;;;;;14.74;97.58;99196.63;4975423;28;20026;-72
2021/08/31 05:40:35;;;;;;;10.98;8.82;;;;;;;14.75;96.55;99195.75;4975143;28;20081;-72
2021/08/31 05:43:01;;;;;;;9.55;8.45;;;;;;;14.80;96.54;99201.69;4975190;28;20051;-72
2021/08/31 05:45:28;;;;;;;10.93;9.13;;;;;;;14.77;96.26;99201.75;4975314;28;20444;-71
2021/08/31 05:47:53;;;;;;;14.40;9.02;;;;;;;14.93;95.37;99203.03;4974187;28;20081;-72
2021/08/31 05:50:18;;;;;;;13.60;9.23;;;;;;;14.89;95.46;99206.63;4968632;28;20031;-72
2021/08/31 05:52:44;;;;;;;11.38;9.00;;;;;;;15.17;93.39;99207.53;4955637;29;20089;-72
2021/08/31 05:55:09;;;;;;;10.52;8.93;;;;;;;15.23;92.44;99205.63;4955667;29;20027;-71
2021/08/31 05:57:35;;;;;;;9.43;8.30;;;;;;;15.15;93.22;99209.34;4955953;29;20031;-72
2021/08/31 06:00:00;;;;;;;10.98;8.50;;;;;;;15.19;93.59;99209.25;4955614;29;20027;-71
2021/08/31 06:02:26;;;;;;;10.98;9.13;;;;;;;15.50;92.49;99215.25;4958809;28;20239;-72
2021/08/31 06:04:51;;;;;;;10.52;8.20;;;;;;;15.71;90.82;99215.50;4966645;28;20033;-71
2021/08/31 06:07:17;;;;;;;16.58;8.73;;;;;;;15.60;90.74;99216.66;4974796;28;20035;-72
2021/08/31 06:09:42;;;;;;;11.02;8.45;;;;;;;15.56;90.15;99220.28;4973476;28;20026;-72
2021/08/31 06:12:11;;;;;;;9.80;7.10;;;;;;;16.42;87.01;99222.72;4974466;28;20089;-72
2021/08/31 06:14:37;;;;;;;11.02;8.00;;;;;;;16.85;83.42;99216.00;4963704;28;20065;-72
2021/08/31 06:17:03;;;;;;;11.25;7.53;;;;;;;16.84;83.57;99214.31;4944759;28;20469;-72
2021/08/31 06:19:29;;;;;;;8.52;6.97;;;;;;;16.77;84.40;99218.03;4970511;28;20050;-72
2021/08/31 06:21:54;;;;;;;8.90;7.05;;;;;;;16.58;86.40;99229.13;4953897;28;20056;-72
2021/08/31 06:24:19;;;;;;;8.35;6.68;;;;;;;16.81;84.14;99230.09;4948091;29;20027;-73
2021/08/31 06:26:45;;;;;;;10.27;6.88;;;;;;;16.76;85.23;99227.66;4955064;28;20027;-72
2021/08/31 06:29:11;;;;;;;13.55;6.65;;;;;;;16.74;85.00;99228.63;4954707;28;20121;-72
2021/08/31 06:31:36;;;;;;;12.50;7.32;;;;;;;17.04;82.64;99227.50;4953888;28;20050;-72
2021/08/31 06:34:01;;;;;;;10.57;7.25;;;;;;;17.15;82.87;99230.56;4959445;28;20054;-72
2021/08/31 06:36:27;;;;;;;8.55;6.57;;;;;;;17.03;83.20;99231.03;4949072;29;20023;-72
2021/08/31 06:38:52;;;;;;;10.10;7.45;;;;;;;17.41;80.54;99220.88;4954681;28;20027;-72
2021/08/31 06:41:17;;;;;;;12.13;6.85;;;;;;;17.46;81.38;99229.41;4954457;28;20023;-72
2021/08/31 06:43:45;;;;;;;11.77;6.22;;;;;;;17.48;80.65;99238.06;4954721;28;20443;-72
2021/08/31 06:46:11;;;;;;;12.63;6.13;;;;;;;16.81;82.67;99251.03;4954359;29;20109;-72
2021/08/31 06:48:39;;;;;;;6.80;5.97;;;;;;;17.07;82.05;99243.13;4954375;28;20030;-72
2021/08/31 06:51:04;;;;;;;10.90;6.95;;;;;;;17.03;80.59;99244.13;4948435;28;20026;-72
2021/08/31 06:53:29;;;;;;;7.90;6.03;;;;;;;16.47;83.06;99251.34;4973850;28;20030;-72
2021/08/31 06:55:54;;;;;;;9.07;6.35;;;;;;;16.59;83.40;99246.53;4974101;28;20031;-72
2021/08/31 06:58:20;;;;;;;11.23;6.88;;;;;;;17.44;80.93;99236.47;4972838;28;20027;-72
2021/08/31 07:00:45;;;;;;;7.05;5.30;;;;;;;17.33;79.07;99239.50;4973579;28;20027;-72
2021/08/31 07:03:10;;;;;;;10.90;5.95;;;;;;;17.90;75.60;99235.56;4968175;28;20026;-72
2021/08/31 07:05:36;;;;;;;7.53;6.32;;;;;;;17.54;77.51;99236.97;4968172;28;20023;-72
2021/08/31 07:08:01;;;;;;;8.35;6.03;;;;;;;18.10;75.65;99242.59;4973213;28;20057;-72
2021/08/31 07:10:27;;;;;;;6.53;5.90;;;;;;;18.70;72.70;99232.22;4972763;28;20396;-72
2021/08/31 07:12:52;;;;;;;5.30;4.80;;;;;;;21.55;62.92;99229.50;4952177;28;20090;-72
2021/08/31 07:15:18;;;;;;;6.90;5.32;;;;;;;21.32;60.96;99237.84;4953872;28;20020;-72
2021/08/31 07:17:44;;;;;;;8.52;5.68;;;;;;;19.65;68.47;99243.69;4954054;28;20484;-72
2021/08/31 07:20:10;;;;;;;10.55;5.68;;;;;;;19.16;69.73;99240.69;4947242;28;20023;-72
2021/08/31 07:22:35;;;;;;;11.10;6.40;;;;;;;18.80;70.13;99237.91;4965234;28;20081;-72
2021/08/31 07:25:01;;;;;;;19.13;7.60;;;;;;;18.38;72.16;99252.81;4973074;28;20027;-72
2021/08/31 07:27:26;;;;;;;17.30;7.03;;;;;;;17.35;76.70;99255.16;4973173;28;20062;-72
2021/08/31 07:29:51;;;;;;;22.25;7.65;;;;;;;17.73;78.42;99254.56;4972891;28;20396;-72
2021/08/31 07:32:17;;;;;;;6.03;5.43;;;;;;;17.80;77.66;99259.59;4968790;28;20424;-72
2021/08/31 07:34:42;;;;;;;7.47;5.55;;;;;;;17.96;76.83;99260.66;4964536;28;20038;-72
2021/08/31 07:37:08;;;;;;;9.20;6.10;;;;;;;18.13;74.70;99263.47;4972844;28;20033;-72
2021/08/31 07:39:34;;;;;;;9.43;5.63;;;;;;;17.72;76.10;99273.78;4972866;28;20030;-72
2021/08/31 07:42:00;;;;;;;6.80;5.50;;;;;;;17.71;77.64;99277.34;4972054;28;20027;-72
2021/08/31 07:44:25;;;;;;;5.70;5.05;;;;;;;17.79;76.08;99268.34;4972130;28;20030;-72
2021/08/31 07:46:51;;;;;;;5.63;5.05;;;;;;;17.70;77.79;99274.78;4972481;28;20019;-72
2021/08/31 07:49:18;;;;;;;7.45;5.30;;;;;;;17.61;76.47;99276.00;4972179;28;20484;-72
2021/08/31 07:51:44;;;;;;;7.18;5.50;;;;;;;17.49;77.71;99273.81;4954040;28;20106;-72
2021/08/31 07:54:10;;;;;;;7.55;5.03;;;;;;;17.58;77.81;99278.72;4947482;29;20101;-72
2021/08/31 07:56:36;;;;;;;8.27;5.38;;;;;;;17.70;76.82;99280.88;4949142;29;20438;-72
2021/08/31 07:59:03;;;;;;;8.25;5.60;;;;;;;17.36;77.46;99280.47;4971827;28;20070;-72
2021/08/31 08:01:29;;;;;;;8.68;5.22;;;;;;;17.94;75.80;99284.34;4970806;28;20080;-72
2021/08/31 08:03:55;;;;;;;10.50;5.28;;;;;;;17.73;74.74;99283.38;4958035;28;20038;-72
2021/08/31 08:06:21;;;;;;;6.72;5.13;;;;;;;17.66;74.19;99284.53;4971485;28;20049;-72
2021/08/31 08:08:46;;;;;;;7.32;5.20;;;;;;;17.63;75.33;99274.16;4971963;28;20496;-72
2021/08/31 08:11:11;;;;;;;7.15;4.18;;;;;;;18.29;73.31;99283.81;4964529;28;20039;-72
2021/08/31 08:13:37;;;;;;;5.93;4.40;;;;;;;18.52;72.90;99288.09;4953281;28;20027;-72
2021/08/31 08:16:02;;;;;;;4.65;4.25;;;;;;;18.45;72.60;99295.38;4950666;29;20033;-72
2021/08/31 08:18:28;;;;;;;23.15;15.82;;;;;;;18.69;71.03;99299.63;4952871;29;20031;-72
2021/08/31 08:20:53;;;;;;;5.80;4.30;;;;;;;18.16;73.39;99305.28;4945100;28;20034;-72
2021/08/31 08:23:19;;;;;;;5.88;4.22;;;;;;;18.21;73.95;99299.84;4972000;28;20408;-72
2021/08/31 08:25:44;;;;;;;9.13;5.00;;;;;;;18.36;74.20;99306.25;4973724;28;20027;-72
2021/08/31 08:28:10;;;;;;;6.07;5.13;;;;;;;18.48;74.54;99308.38;4974567;28;20031;-72
2021/08/31 08:30:35;;;;;;;5.55;5.00;;;;;;;18.61;74.17;99306.91;4975804;28;20046;-72
2021/08/31 08:33:01;;;;;;;11.77;5.57;;;;;;;17.88;76.13;99304.69;4971408;28;20113;-72
2021/08/31 08:35:26;;;;;;;11.27;5.70;;;;;;;17.99;75.88;99310.38;4967734;28;20023;-72
2021/08/31 08:37:52;;;;;;;12.48;5.72;;;;;;;18.41;73.99;99309.53;4975184;28;20032;-72
2021/08/31 08:40:17;;;;;;;6.78;5.50;;;;;;;18.59;72.58;99311.41;4976219;28;20042;-72
2021/08/31 08:42:42;;;;;;;7.05;5.18;;;;;;;18.46;72.33;99312.81;4975817;28;20054;-72
2021/08/31 08:45:09;;;;;;;7.45;5.53;;;;;;;18.72;72.87;99304.75;4976133;28;20039;-73
2021/08/31 08:47:35;;;;;;;12.75;6.22;;;;;;;18.97;71.62;99312.41;4974723;28;20030;-72
2021/08/31 08:50:01;;;;;;;7.57;5.43;;;;;;;19.04;71.43;99320.00;4970788;28;20074;-73
2021/08/31 08:52:27;;;;;;;8.65;5.93;;;;;;;18.89;71.31;99321.53;4956488;28;20030;-73
2021/08/31 08:54:53;;;;;;;7.93;5.03;;;;;;;18.37;73.62;99318.44;4956395;28;20051;-72
2021/08/31 08:57:19;;;;;;;5.85;4.88;;;;;;;18.45;73.58;99321.63;4956493;28;20027;-72
2021/08/31 08:59:48;;;;;;;7.65;5.47;;;;;;;18.54;74.11;99321.22;4960961;28;20022;-73
2021/08/31 09:02:40;;;;;;;6.77;5.60;;;;;;;18.29;73.66;99331.03;4963645;28;20026;-73
2021/08/31 09:05:08;;;;;;;8.57;4.70;;;;;;;18.02;75.17;99333.84;4967609;28;20027;-72
2021/08/31 09:07:41;;;;;;;7.13;4.70;;;;;;;17.88;75.26;99334.38;4975716;28;20050;-72
2021/08/31 09:10:18;;;;;;;8.27;5.03;;;;;;;17.53;78.22;99337.47;4975762;28;20030;-73
2021/08/31 09:12:52;;;;;;;8.43;5.53;;;;;;;17.35;78.00;99341.59;4954773;28;20042;-72
2021/08/31 09:15:34;;;;;;;7.38;5.40;;;;;;;17.23;78.71;99344.69;4956201;28;20031;-73
2021/08/31 09:18:05;;;;;;;10.20;5.88;;;;;;;17.05;79.47;99348.78;4956164;28;20471;-72
2021/08/31 09:20:53;;;;;;;12.70;6.55;;;;;;;16.60;80.35;99350.28;4947431;28;20020;-72
2021/08/31 09:23:34;;;;;;;7.97;5.15;;;;;;;17.05;80.04;99349.66;4934742;29;20126;-73
2021/08/31 09:26:09;;;;;;;10.45;5.80;;;;;;;16.88;80.08;99358.09;4955807;28;20103;-72
2021/08/31 09:28:36;;;;;;;21.95;8.70;;;;;;;16.73;79.07;99362.97;4955831;28;20030;-73
2021/08/31 09:31:03;;;;;;;41.90;10.95;;;;;;;16.98;78.78;99363.88;4955751;28;20074;-72
2021/08/31 09:33:32;;;;;;;15.43;6.20;;;;;;;17.37;77.75;99363.38;4957318;28;20023;-72
2021/08/31 09:36:10;;;;;;;5.95;5.30;;;;;;;17.40;77.19;99358.84;4957128;28;20027;-72
2021/08/31 09:38:56;;;;;;;7.60;4.95;;;;;;;17.68;76.06;99355.22;4955619;28;20054;-73
2021/08/31 09:41:42;;;;;;;8.82;5.65;;;;;;;17.70;75.94;99359.50;4955427;28;20069;-74
2021/08/31 09:44:11;;;;;;;9.57;6.05;;;;;;;17.98;75.89;99358.47;4955599;28;20420;-72
2021/08/31 09:46:55;;;;;;;5.75;5.10;;;;;;;17.73;77.25;99361.19;4954764;28;20385;-73
2021/08/31 09:49:29;;;;;;;10.23;5.20;;;;;;;17.90;75.25;99355.31;4955411;28;20027;-73
2021/08/31 09:52:11;;;;;;;10.60;5.18;;;;;;;17.88;76.34;99357.13;4955945;28;20110;-73
2021/08/31 09:54:40;;;;;;;10.35;5.05;;;;;;;17.88;76.25;99360.59;4974760;28;20027;-73
2021/08/31 09:57:27;;;;;;;5.93;4.55;;;;;;;17.75;73.79;99366.38;4974425;28;20436;-72
2021/08/31 09:59:53;;;;;;;12.27;4.75;;;;;;;17.61;74.08;99354.59;4974465;28;20027;-72
2021/08/31 10:02:18;;;;;;;9.45;4.35;;;;;;;16.99;73.51;99365.56;4971274;28;20074;-73
2021/08/31 10:04:44;;;;;;;10.88;6.00;;;;;;;17.20;72.74;99359.56;4966275;28;20023;-73
2021/08/31 10:07:12;;;;;;;20.52;7.50;;;;;;;17.52;73.29;99360.19;4974420;28;20050;-73
2021/08/31 10:09:38;;;;;;;18.83;7.20;;;;;;;17.78;72.48;99356.59;4972136;28;20373;-72
2021/08/31 10:12:07;;;;;;;9.80;5.22;;;;;;;18.34;69.95;99357.94;4960010;28;20023;-72
2021/08/31 10:14:33;;;;;;;15.98;6.65;;;;;;;18.01;70.27;99363.59;4955235;28;20074;-73
2021/08/31 10:17:00;;;;;;;7.07;4.85;;;;;;;17.64;70.32;99364.97;4954954;28;20134;-73
2021/08/31 10:19:25;;;;;;;8.70;4.28;;;;;;;18.12;70.54;99371.03;4954197;28;20031;-73
2021/08/31 10:21:51;;;;;;;4.90;4.38;;;;;;;18.24;68.74;99365.31;4942385;28;20647;-73
2021/08/31 10:24:16;;;;;;;11.95;4.68;;;;;;;18.47;68.66;99356.53;4927363;28;20169;-73
2021/08/31 10:26:42;;;;;;;6.82;4.32;;;;;;;19.06;69.37;99361.06;4920829;28;20456;-73
2021/08/31 10:29:16;;;;;;;4.82;4.32;;;;;;;19.38;66.48;99362.25;4952623;28;20018;-74
2021/08/31 10:31:43;;;;;;;6.75;4.50;;;;;;;18.87;67.63;99366.25;4954661;28;20058;-74
2021/08/31 10:34:30;;;;;;;50.22;11.52;;;;;;;18.01;69.24;99374.09;4946729;28;20030;-74
2021/08/31 10:37:00;;;;;;;18.45;7.22;;;;;;;18.54;68.17;99368.47;4973835;28;20037;-74
2021/08/31 10:39:44;;;;;;;11.40;4.72;;;;;;;18.22;67.14;99373.25;4973810;28;20484;-74
2021/08/31 10:42:33;;;;;;;7.40;4.05;;;;;;;19.62;62.77;99360.34;4973577;28;20472;-74
2021/08/31 10:45:32;;;;;;;5.65;4.70;;;;;;;20.13;61.76;99361.47;4967553;28;20053;-74
2021/08/31 10:47:58;;;;;;;4.88;4.00;;;;;;;20.37;62.66;99362.06;4945749;28;20580;-74
2021/08/31 10:50:30;;;;;;;4.88;3.83;;;;;;;20.14;60.77;99357.91;4945388;28;20111;-74
2021/08/31 10:53:06;;;;;;;4.20;3.40;;;;;;;20.14;62.02;99363.19;4934369;28;20032;-74
2021/08/31 10:55:37;;;;;;;4.38;3.28;;;;;;;20.44;61.65;99370.50;4933036;29;20031;-74
2021/08/31 10:58:08;;;;;;;4.50;3.50;;;;;;;19.72;63.95;99366.88;4932090;28;20024;-74
2021/08/31 11:00:33;;;;;;;5.15;3.80;;;;;;;19.10;63.10;99367.91;4933600;29;20038;-74
2021/08/31 11:03:00;;;;;;;4.38;3.53;;;;;;;20.05;60.22;99368.03;4933762;28;21266;-74
2021/08/31 11:05:30;;;;;;;5.68;3.55;;;;;;;20.43;58.14;99368.81;4932082;28;21142;-74
2021/08/31 11:07:59;;;;;;;3.90;3.42;;;;;;;21.67;55.43;99360.72;4932923;28;20109;-74
2021/08/31 11:10:33;;;;;;;;;;;;;;;21.72;56.52;99369.25;4934134;29;20035;-74
2021/08/31 11:13:17;;;;;;;6.65;3.95;;;;;;;21.47;57.21;99368.84;4932278;28;19969;-75
2021/08/31 11:15:43;;;;;;;6.95;4.03;;;;;;;21.77;57.16;99367.19;4933480;29;20027;-75
2021/08/31 11:18:11;;;;;;;4.90;3.20;;;;;;;22.63;53.81;99372.09;4932536;29;20031;-75
2021/08/31 11:20:39;;;;;;;4.50;3.38;;;;;;;22.08;53.57;99370.78;4914277;28;20043;-75
2021/08/31 11:23:10;;;;;;;11.15;7.25;;;;;;;22.01;55.35;99369.44;4948338;28;20038;-75
2021/08/31 11:25:39;;;;;;;6.13;4.82;;;;;;;22.52;54.52;99370.09;4933127;28;21062;-75
2021/08/31 11:28:07;;;;;;;7.32;3.38;;;;;;;21.93;53.43;99371.63;4921836;28;20059;-75
2021/08/31 11:30:54;;;;;;;5.88;3.63;;;;;;;20.88;57.92;99383.28;4934681;28;20031;-75
2021/08/31 11:33:30;;;;;;;5.70;4.03;;;;;;;20.64;58.14;99388.00;4920481;28;20401;-75
2021/08/31 11:36:02;;;;;;;8.35;4.30;;;;;;;20.32;59.87;99379.88;4914511;28;20039;-75
2021/08/31 11:38:31;;;;;;;11.55;5.18;;;;;;;20.06;62.55;99386.34;4912031;28;21380;-75
2021/08/31 11:41:11;;;;;;;4.03;3.63;;;;;;;18.82;65.00;99386.59;4910313;28;20074;-75
2021/08/31 11:43:37;;;;;;;5.95;3.72;;;;;;;19.42;62.67;99389.28;4916581;28;20024;-75
2021/08/31 11:46:02;;;;;;;3.65;3.10;;;;;;;19.02;64.38;99377.88;4916448;28;20015;-75
2021/08/31 11:48:28;;;;;;;4.00;3.60;;;;;;;18.85;64.64;99388.22;4924565;28;20650;-75
2021/08/31 11:50:57;;;;;;;5.72;3.30;;;;;;;20.12;59.71;99378.19;4922523;28;20228;-75
2021/08/31 11:53:23;;;;;;;5.65;3.60;;;;;;;21.04;58.97;99376.34;4916711;28;20019;-75
2021/08/31 11:56:01;;;;;;;8.15;3.83;;;;;;;21.19;58.74;99382.59;4920807;28;20405;-75
2021/08/31 11:58:28;;;;;;;4.20;3.80;;;;;;;21.85;56.52;99385.22;4934615;28;20034;-75
2021/08/31 12:00:55;;;;;;;11.68;8.23;;;;;;;21.60;57.07;99393.63;4943381;28;20024;-75
2021/08/31 12:03:30;;;;;;;19.77;10.82;;;;;;;21.13;58.64;99407.50;4932376;28;20030;-75
2021/08/31 12:06:01;;;;;;;4.88;4.03;;;;;;;21.70;57.60;99400.09;4933854;28;20075;-75
2021/08/31 12:08:30;;;;;;;5.18;3.85;;;;;;;21.78;57.36;99395.28;4931101;28;20376;-76
2021/08/31 12:10:57;;;;;;;4.78;3.65;;;;;;;22.09;57.36;99396.22;4936108;28;20023;-75
2021/08/31 12:13:23;;;;;;;5.22;3.65;;;;;;;22.07;55.78;99390.19;4952175;28;20030;-75
2021/08/31 12:15:58;;;;;;;3.80;3.40;;;;;;;21.90;55.79;99384.97;4933150;28;21174;-75
2021/08/31 12:18:27;;;;;;;3.38;3.05;;;;;;;21.46;57.16;99394.34;4934039;28;20030;-75
2021/08/31 12:21:12;;;;;;;7.03;3.50;;;;;;;22.13;57.17;99389.03;4939621;28;20046;-75
2021/08/31 12:23:37;;;;;;;3.38;2.92;;;;;;;22.69;54.87;99391.09;4938241;28;20421;-76
2021/08/31 12:26:02;;;;;;;4.32;3.40;;;;;;;22.39;55.45;99390.22;4933776;28;20107;-75
2021/08/31 12:28:28;;;;;;;5.75;3.75;;;;;;;21.62;57.79;99404.97;4937998;28;20114;-75
2021/08/31 12:30:53;;;;;;;8.98;3.85;;;;;;;21.27;59.30;99399.72;4936538;28;20092;-75
2021/08/31 12:33:32;;;;;;;6.18;4.20;;;;;;;20.50;61.90;99401.84;4936885;28;20474;-75
2021/08/31 12:36:09;;;;;;;6.13;3.80;;;;;;;19.99;63.65;99406.00;4939802;28;20055;-75
2021/08/31 12:38:41;;;;;;;5.07;4.05;;;;;;;19.61;64.31;99400.69;4932403;28;20516;-75
2021/08/31 12:41:13;;;;;;;6.03;4.45;;;;;;;18.94;67.01;99412.34;4935800;28;20039;-75
2021/08/31 12:43:49;;;;;;;4.57;4.15;;;;;;;18.96;68.04;99418.41;4959424;28;20026;-75
2021/08/31 12:46:31;;;;;;;6.68;4.65;;;;;;;18.86;69.76;99410.97;4963822;28;20019;-75
2021/08/31 12:49:18;;;;;;;4.45;3.92;;;;;;;18.88;69.52;99409.97;4970954;28;20575;-75
2021/08/31 12:51:47;;;;;;;8.45;4.10;;;;;;;18.78;67.87;99407.78;4953846;28;20035;-75
2021/08/31 12:54:34;;;;;;;5.07;4.25;;;;;;;18.05;70.45;99401.91;4952305;28;20042;-75
2021/08/31 12:57:02;;;;;;;9.43;5.10;;;;;;;18.22;71.64;99412.59;4952321;28;20038;-75
2021/08/31 12:59:42;;;;;;;5.07;4.07;;;;;;;18.50;70.32;99409.72;4952010;28;20040;-75
2021/08/31 13:02:10;;;;;;;5.35;4.20;;;;;;;18.70;71.70;99411.56;4948426;28;20124;-75
2021/08/31 13:04:41;;;;;;;4.90;3.95;;;;;;;19.02;69.75;99412.03;4960142;28;20484;-75
2021/08/31 13:07:06;;;;;;;4.72;4.00;;;;;;;19.01;67.41;99410.31;4952431;28;20015;-75
2021/08/31 13:09:31;;;;;;;16.27;11.43;;;;;;;18.99;68.84;99406.88;4952214;28;20071;-76
2021/08/31 13:11:57;;;;;;;19.95;14.38;;;;;;;19.16;68.00;99414.06;4952267;28;20078;-75
2021/08/31 13:14:25;;;;;;;5.25;4.13;;;;;;;19.35;67.33;99398.38;4955770;28;20046;-75
2021/08/31 13:16:52;;;;;;;4.97;4.10;;;;;;;19.54;66.48;99396.63;4955123;28;20400;-75
2021/08/31 13:19:18;;;;;;;5.78;3.90;;;;;;;19.72;66.08;99392.31;4950437;28;20044;-76
2021/08/31 13:21:45;;;;;;;4.63;4.13;;;;;;;19.56;64.54;99397.41;4944961;28;20015;-76
2021/08/31 13:24:11;;;;;;;6.03;4.03;;;;;;;19.52;65.72;99391.41;4958061;28;20109;-76
2021/08/31 13:26:38;;;;;;;4.28;3.70;;;;;;;19.89;65.18;99397.69;4966806;28;20103;-75
2021/08/31 13:29:05;;;;;;;5.40;3.70;;;;;;;19.87;65.53;99396.03;4974561;28;20150;-76
2021/08/31 13:31:32;;;;;;;6.32;4.20;;;;;;;19.93;64.59;99391.34;4974543;28;20023;-76
2021/08/31 13:33:57;;;;;;;4.80;4.20;;;;;;;19.85;63.89;99393.47;4968461;28;20106;-76
2021/08/31 13:36:23;;;;;;;5.35;4.15;;;;;;;19.64;65.45;99392.69;4966740;28;20467;-75
2021/08/31 13:38:48;;;;;;;4.38;3.72;;;;;;;19.51;65.75;99396.75;4945156;28;20031;-75
2021/08/31 13:41:14;;;;;;;5.78;3.90;;;;;;;19.63;65.23;99393.63;4958180;28;20492;-75
2021/08/31 13:43:41;;;;;;;4.65;3.88;;;;;;;19.59;65.25;99388.53;4949839;28;20424;-75
2021/08/31 13:46:07;;;;;;;4.35;3.85;;;;;;;19.43;65.57;99396.22;4932594;28;20030;-75
2021/08/31 13:48:33;;;;;;;6.45;4.25;;;;;;;19.39;65.83;99394.66;4933846;28;20035;-75
2021/08/31 13:50:58;;;;;;;7.47;4.15;;;;;;;19.15;67.17;99396.59;4934847;28;20035;-75
2021/08/31 13:53:24;;;;;;;5.75;3.80;;;;;;;19.34;67.05;99396.63;4934483;28;20031;-75
2021/08/31 13:55:52;;;;;;;4.05;3.65;;;;;;;19.38;67.65;99403.47;4934452;29;20127;-75
2021/08/31 13:58:19;;;;;;;5.40;4.13;;;;;;;19.28;69.34;99397.75;4933610;28;20031;-75
2021/08/31 14:00:45;;;;;;;6.00;4.35;;;;;;;18.82;70.86;99404.13;4932766;28;20027;-75
2021/08/31 14:03:11;;;;;;;4.75;4.25;;;;;;;19.21;69.43;99397.19;4934498;28;20388;-75
2021/08/31 14:05:37;;;;;;;6.28;4.53;;;;;;;18.73;68.38;99405.34;4934532;28;20023;-75
2021/08/31 14:08:07;;;;;;;5.50;4.28;;;;;;;18.77;69.46;99404.31;4933433;28;20067;-75
2021/08/31 14:10:33;;;;;;;4.45;3.78;;;;;;;18.65;70.10;99407.41;4870234;28;20043;-75
2021/08/31 14:12:59;;;;;;;5.88;4.38;;;;;;;18.36;71.67;99412.03;4874228;28;20032;-75
2021/08/31 14:15:25;;;;;;;5.90;4.68;;;;;;;18.37;69.49;99405.91;4875347;28;20046;-75
2021/08/31 14:17:50;;;;;;;7.30;4.57;;;;;;;18.15;69.92;99408.50;4870494;28;20035;-74
2021/08/31 14:20:16;;;;;;;5.35;4.85;;;;;;;18.16;70.65;99407.59;4867133;28;20500;-75
2021/08/31 14:22:41;;;;;;;5.55;4.43;;;;;;;18.43;69.45;99407.44;4863691;28;20035;-75
2021/08/31 14:25:07;;;;;;;9.00;4.40;;;;;;;18.83;66.46;99400.59;4869051;28;20051;-75
2021/08/31 14:27:32;;;;;;;16.20;6.50;;;;;;;18.53;67.66;99403.53;4864238;28;20047;-75
2021/08/31 14:29:58;;;;;;;18.80;7.28;;;;;;;18.67;65.84;99401.19;4868257;28;20036;-75
2021/08/31 14:32:23;;;;;;;11.75;5.20;;;;;;;18.91;66.17;99403.75;4866136;28;20065;-75
2021/08/31 14:34:48;;;;;;;5.75;4.05;;;;;;;19.98;62.75;99401.66;4867948;28;20121;-75
2021/08/31 14:37:14;;;;;;;4.00;3.60;;;;;;;20.39;60.73;99393.56;4869962;28;20122;-75
2021/08/31 14:39:40;;;;;;;4.30;3.53;;;;;;;20.34;59.44;99390.31;4898003;28;20035;-75
2021/08/31 14:42:06;;;;;;;5.25;4.10;;;;;;;20.56;58.34;99396.28;4919481;28;20397;-75
2021/08/31 14:44:31;;;;;;;5.32;4.25;;;;;;;21.23;58.79;99390.25;4916779;28;20027;-76
2021/08/31 14:46:56;;;;;;;3.65;3.35;;;;;;;21.25;57.61;99387.53;4919277;28;20019;-75
2021/08/31 14:49:22;;;;;;;10.32;4.20;;;;;;;21.61;58.28;99384.75;4924675;28;20085;-75
2021/08/31 14:51:47;;;;;;;4.97;3.72;;;;;;;21.53;60.30;99389.63;4928116;28;20567;-75
2021/08/31 14:54:12;;;;;;;7.95;3.95;;;;;;;21.37;58.42;99393.97;4927069;28;20958;-76
2021/08/31 14:56:38;;;;;;;9.23;4.13;;;;;;;21.30;58.39;99394.31;4927384;28;20126;-75
2021/08/31 14:59:04;;;;;;;6.35;4.13;;;;;;;21.25;60.37;99395.44;4927499;28;20031;-75
2021/08/31 15:01:29;;;;;;;7.03;4.20;;;;;;;21.65;59.13;99394.22;4927206;28;20034;-75
2021/08/31 15:03:55;;;;;;;6.68;4.60;;;;;;;21.75;58.60;99382.25;4927689;28;20031;-75
2021/08/31 15:06:21;;;;;;;5.50;4.78;;;;;;;21.19;60.04;99399.25;4926500;28;20043;-75
2021/08/31 15:08:46;;;;;;;5.82;3.53;;;;;;;20.57;60.09;99398.00;4931436;28;20032;-76
2021/08/31 15:11:12;;;;;;;13.48;4.35;;;;;;;20.25;60.90;99397.72;4931963;28;20175;-75
2021/08/31 15:13:37;;;;;;;5.13;4.03;;;;;;;20.31;62.06;99395.72;4934000;28;20118;-76
2021/08/31 15:16:02;;;;;;;8.20;5.10;;;;;;;20.11;62.72;99400.16;4933043;28;20036;-76
2021/08/31 15:18:28;;;;;;;13.13;4.97;;;;;;;19.74;63.07;99391.34;4933469;29;20441;-75
2021/08/31 15:20:53;;;;;;;6.90;4.82;;;;;;;19.74;65.39;99390.50;4933900;29;20074;-76
2021/08/31 15:23:18;;;;;;;8.85;4.53;;;;;;;19.59;65.23;99383.28;4933709;28;20039;-76
2021/08/31 15:25:44;;;;;;;6.10;4.28;;;;;;;19.69;64.72;99397.75;4933822;29;20023;-76
2021/08/31 15:28:09;;;;;;;15.57;11.57;;;;;;;20.22;63.50;99403.16;4934001;29;20037;-76
2021/08/31 15:30:34;;;;;;;20.13;5.07;;;;;;;20.54;61.70;99398.13;4933794;28;21099;-77
2021/08/31 15:33:00;;;;;;;4.57;3.75;;;;;;;20.88;60.51;99396.47;4933752;28;20042;-76
2021/08/31 15:35:25;;;;;;;5.47;4.20;;;;;;;20.79;60.07;99393.38;4933389;28;20038;-75
2021/08/31 15:37:54;;;;;;;5.75;4.18;;;;;;;20.24;61.04;99400.44;4948192;28;20504;-75
2021/08/31 15:40:21;;;;;;;5.55;4.55;;;;;;;19.59;64.65;99399.91;4933564;29;20110;-76
2021/08/31 15:42:47;;;;;;;21.23;4.75;;;;;;;19.58;64.36;99402.56;4933445;29;20046;-75
2021/08/31 15:45:12;;;;;;;9.63;4.07;;;;;;;20.47;61.83;99400.22;4933508;29;20034;-75
2021/08/31 15:47:38;;;;;;;4.85;4.03;;;;;;;20.48;60.71;99398.44;4933904;29;20035;-76